createdAt,value
2019-03-18T00:04:06.900Z,3.9
2019-03-18T00:09:09.449Z,3.8
2019-03-18T00:14:11.896Z,3.7
2019-03-18T00:19:14.270Z,3.7
2019-03-18T00:24:17.036Z,3.6
2019-03-18T00:29:19.189Z,3.6
2019-03-18T00:34:21.704Z,3.6
2019-03-18T00:39:24.254Z,3.6
2019-03-18T00:44:26.603Z,3.5
2019-03-18T00:49:29.076Z,3.5
2019-03-18T00:54:31.854Z,3.5
2019-03-18T00:59:33.973Z,3.5
2019-03-18T01:04:36.441Z,3.5
2019-03-18T01:09:39.016Z,3.5
2019-03-18T01:14:41.408Z,3.4
2019-03-18T01:19:43.808Z,3.4
2019-03-18T01:24:46.699Z,3.4
2019-03-18T01:29:48.764Z,3.3
2019-03-18T01:34:51.265Z,3.3
2019-03-18T01:39:53.764Z,3.2
2019-03-18T01:44:56.134Z,3.2
2019-03-18T01:49:58.633Z,3.1
2019-03-18T01:55:01.060Z,3.1
2019-03-18T02:00:03.913Z,3.1
2019-03-18T02:05:06.024Z,3.1
2019-03-18T02:10:08.527Z,3
2019-03-18T02:15:10.931Z,3
2019-03-18T02:20:13.376Z,3
2019-03-18T02:25:16.157Z,3
2019-03-18T02:30:18.391Z,2.9
2019-03-18T02:35:21.019Z,2.8
2019-03-18T02:40:23.335Z,2.8
2019-03-18T02:45:25.686Z,2.7
2019-03-18T02:50:28.157Z,2.7
2019-03-18T02:55:31.005Z,2.7
2019-03-18T03:00:33.254Z,2.7
2019-03-18T03:05:35.580Z,2.6
2019-03-18T03:10:38.210Z,2.6
2019-03-18T03:15:40.576Z,2.5
2019-03-18T03:20:43.027Z,2.4
2019-03-18T03:25:45.423Z,2.4
2019-03-18T03:30:47.975Z,2.3
2019-03-18T03:35:50.353Z,2.3
2019-03-18T03:40:52.891Z,2.3
2019-03-18T03:45:55.289Z,2.3
2019-03-18T03:50:57.746Z,2.2
2019-03-18T03:56:00.637Z,2.2
2019-03-18T04:01:02.714Z,2.1
2019-03-18T04:06:05.173Z,2
2019-03-18T04:11:08.581Z,1.9
2019-03-18T04:16:10.090Z,1.8
2019-03-18T04:21:12.527Z,1.8
2019-03-18T04:26:15.309Z,1.7
2019-03-18T04:31:17.592Z,1.7
2019-03-18T04:36:19.939Z,1.7
2019-03-18T04:41:22.469Z,1.7
2019-03-18T04:46:24.858Z,1.7
2019-03-18T04:51:27.363Z,1.7
2019-03-18T04:56:30.220Z,1.7
2019-03-18T05:01:32.272Z,1.7
2019-03-18T05:11:37.265Z,1.7
2019-03-18T05:16:39.636Z,1.7
2019-03-18T05:21:42.128Z,1.7
2019-03-18T05:26:44.883Z,1.7
2019-03-18T05:31:47.097Z,1.8
2019-03-18T05:36:50.562Z,1.8
2019-03-18T05:46:54.421Z,1.8
2019-03-18T05:51:56.887Z,1.8
2019-03-18T05:56:59.726Z,1.9
2019-03-18T06:02:01.864Z,1.9
2019-03-18T06:07:04.275Z,1.9
2019-03-18T06:12:06.780Z,2
2019-03-18T06:17:09.207Z,2
2019-03-18T06:22:11.759Z,2.1
2019-03-18T06:27:14.151Z,2.3
2019-03-18T06:32:16.659Z,2.4
2019-03-18T06:37:19.109Z,2.4
2019-03-18T06:42:21.542Z,2.4
2019-03-18T06:47:24.001Z,2.4
2019-03-18T06:52:26.480Z,2.4
2019-03-18T06:57:29.254Z,2.8
2019-03-18T07:02:31.413Z,3.9
2019-03-18T07:07:33.869Z,4.9
2019-03-18T07:12:36.299Z,4.9
2019-03-18T07:17:38.753Z,5.8
2019-03-18T07:22:41.281Z,6.2
2019-03-18T07:27:43.674Z,6
2019-03-18T07:32:46.259Z,6.4
2019-03-18T07:37:48.671Z,8.1
2019-03-18T07:42:51.118Z,10.4
2019-03-18T07:47:53.636Z,11.8
2019-03-18T07:52:55.976Z,12.3
2019-03-18T07:57:58.742Z,13.2
2019-03-18T08:03:03.258Z,13.9
2019-03-18T08:08:03.390Z,14.3
2019-03-18T08:13:05.803Z,14.8
2019-03-18T08:18:08.333Z,14.7
2019-03-18T08:23:10.707Z,13.9
2019-03-18T08:28:13.175Z,12.2
2019-03-18T08:33:15.667Z,10.8
2019-03-18T08:38:18.078Z,11.1
2019-03-18T08:43:20.533Z,11.1
2019-03-18T08:48:23.170Z,12.7
2019-03-18T08:53:25.462Z,14.5
2019-03-18T08:58:27.918Z,15.9
2019-03-18T09:03:30.396Z,16.7
2019-03-18T09:08:32.824Z,15.8
2019-03-18T09:13:35.309Z,13.5
2019-03-18T09:18:37.874Z,12.6
2019-03-18T09:23:40.268Z,12.5
2019-03-18T09:28:42.937Z,11.5
2019-03-18T09:33:45.145Z,10.6
2019-03-18T09:38:47.578Z,9.4
2019-03-18T09:43:50.077Z,8.8
2019-03-18T09:48:52.563Z,8.2
2019-03-18T09:53:54.981Z,7.7
2019-03-18T09:58:57.773Z,7.7
2019-03-18T10:03:59.889Z,7.9
2019-03-18T10:09:02.350Z,8.3
2019-03-18T10:14:04.762Z,9.2
2019-03-18T10:19:07.299Z,9.2
2019-03-18T10:24:09.679Z,9.1
2019-03-18T10:29:12.317Z,9.5
2019-03-18T10:34:14.631Z,10.6
2019-03-18T10:44:19.534Z,11.3
2019-03-18T10:49:22.070Z,11.1
2019-03-18T10:54:30.569Z,10.7
2019-03-18T10:59:27.021Z,10.2
2019-03-18T11:04:29.350Z,9.9
2019-03-18T11:09:31.794Z,9.5
2019-03-18T11:14:34.254Z,8.8
2019-03-18T11:19:36.809Z,8.2
2019-03-18T11:24:39.153Z,7.8
2019-03-18T11:29:42.068Z,7.4
2019-03-18T11:34:44.084Z,7.3
2019-03-18T11:39:46.715Z,9.5
2019-03-18T11:44:49.011Z,12.6
2019-03-18T11:49:51.521Z,12.1
2019-03-18T11:54:54.026Z,11.8
2019-03-18T11:59:56.436Z,11.7
2019-03-18T12:04:58.850Z,10.8
2019-03-18T12:10:01.404Z,10.4
2019-03-18T12:15:03.921Z,10.4
2019-03-18T12:20:06.277Z,10.3
2019-03-18T12:25:08.743Z,9.9
2019-03-18T12:30:11.481Z,9
2019-03-18T12:35:13.609Z,8.4
2019-03-18T12:40:16.030Z,8.2
2019-03-18T12:45:18.693Z,8.9
2019-03-18T12:50:36.744Z,11.6
2019-03-18T12:55:23.421Z,13
2019-03-18T13:05:28.324Z,12.5
2019-03-18T13:20:35.801Z,14.2
2019-03-18T13:30:40.607Z,10.1
2019-03-18T13:35:43.335Z,9.1
2019-03-18T13:40:46.037Z,10.2
2019-03-18T13:45:54.989Z,11.7
2019-03-18T13:50:50.567Z,12.6
2019-03-18T13:55:52.882Z,12.2
2019-03-18T14:00:55.448Z,10.9
2019-03-18T14:05:57.795Z,10.3
2019-03-18T14:11:00.303Z,9.8
2019-03-18T14:16:02.723Z,9.5
2019-03-18T14:21:05.160Z,9.1
2019-03-18T14:26:07.620Z,8.6
2019-03-18T14:31:10.378Z,7.7
2019-03-18T14:36:12.550Z,6.4
2019-03-18T14:41:15.017Z,5.5
2019-03-18T14:46:17.518Z,5.1
2019-03-18T14:51:20.248Z,4.7
2019-03-18T14:56:22.382Z,4.2
2019-03-18T15:01:24.841Z,4
2019-03-18T15:06:27.279Z,4.2
2019-03-18T15:11:29.772Z,4.5
2019-03-18T15:16:32.190Z,4.8
2019-03-18T15:21:34.743Z,5
2019-03-18T15:26:37.102Z,5.1
2019-03-18T15:31:39.599Z,5.2
2019-03-18T15:36:42.156Z,5.2
2019-03-18T15:41:44.595Z,5.3
2019-03-18T15:46:47.130Z,5.5
2019-03-18T15:51:49.470Z,5.6
2019-03-18T15:56:51.844Z,5.6
2019-03-18T16:01:54.293Z,5.5
2019-03-18T16:06:57.063Z,5.5
2019-03-18T16:17:02.503Z,5.2
2019-03-18T16:22:04.214Z,4.9
2019-03-18T16:27:06.596Z,4.7
2019-03-18T16:32:11.346Z,4.5
2019-03-18T16:37:11.546Z,4.2
2019-03-18T16:42:14.009Z,4.3
2019-03-18T16:47:16.447Z,4.2
2019-03-18T16:52:18.956Z,4.1
2019-03-18T16:57:21.337Z,3.8
2019-03-18T17:02:24.131Z,3.6
2019-03-18T17:07:26.305Z,3.4
2019-03-18T17:12:28.769Z,3.2
2019-03-18T17:17:31.290Z,3.1
2019-03-18T17:22:33.701Z,2.9
2019-03-18T17:27:36.104Z,2.8
2019-03-18T17:37:41.085Z,2.5
2019-03-18T17:42:43.527Z,2.5
2019-03-18T17:47:46.020Z,2.4
2019-03-18T17:53:00.773Z,2.4
2019-03-18T17:57:50.897Z,2.3
2019-03-18T18:02:53.358Z,2.2
2019-03-18T18:07:55.914Z,2.2
2019-03-18T18:12:58.279Z,2.2
2019-03-18T18:18:00.739Z,2.2
2019-03-18T18:23:13.530Z,2.2
2019-03-18T18:28:05.714Z,2.1
2019-03-18T18:33:08.304Z,2.1
2019-03-18T18:38:10.667Z,2.1
2019-03-18T18:43:13.071Z,2.1
2019-03-18T18:48:15.627Z,2.1
2019-03-18T18:53:25.922Z,2.1
2019-03-18T18:58:20.487Z,2.2
2019-03-18T19:03:22.925Z,2.2
2019-03-18T19:08:25.435Z,2.2
2019-03-18T19:13:27.896Z,2.2
2019-03-18T19:18:37.518Z,2.2
2019-03-18T19:23:37.405Z,2.2
2019-03-18T19:28:35.261Z,2.2
2019-03-18T19:38:40.336Z,2.2
2019-03-18T19:43:42.639Z,2.2
2019-03-18T19:48:45.203Z,2.2
2019-03-18T19:53:49.251Z,2.3
2019-03-18T19:58:50.042Z,2.4
2019-03-18T20:03:52.497Z,2.6
2019-03-18T20:08:55.285Z,2.7
2019-03-18T20:13:57.469Z,2.8
2019-03-18T20:18:59.904Z,2.9
2019-03-18T20:24:04.321Z,3
2019-03-18T20:29:04.828Z,3.1
2019-03-18T20:34:07.358Z,3.1
2019-03-18T20:39:09.785Z,3.2
2019-03-18T20:44:12.306Z,3.3
2019-03-18T20:49:16.946Z,3.3
2019-03-18T20:54:17.297Z,3.3
2019-03-18T20:59:19.693Z,3.4
2019-03-18T21:04:22.157Z,3.4
2019-03-18T21:09:24.837Z,3.4
2019-03-18T21:14:26.979Z,3.4
2019-03-18T21:19:29.430Z,3.4
2019-03-18T21:24:31.964Z,3.4
2019-03-18T21:29:34.350Z,3.4
2019-03-18T21:34:36.818Z,3.3
2019-03-18T21:39:39.581Z,3.2
2019-03-18T21:44:41.737Z,3.1
2019-03-18T21:49:44.211Z,3
2019-03-18T21:54:46.773Z,2.9
2019-03-18T21:59:49.118Z,2.8
2019-03-18T22:04:51.667Z,2.8
2019-03-18T22:09:54.369Z,2.7
2019-03-18T22:14:56.576Z,2.6
2019-03-18T22:19:59.019Z,2.5
2019-03-18T22:25:01.664Z,2.4
2019-03-18T22:30:03.915Z,2.3
2019-03-18T22:35:06.369Z,2.3
2019-03-18T22:40:08.918Z,2.2
2019-03-18T22:45:11.471Z,2.1
2019-03-18T22:50:13.764Z,2.1
2019-03-18T22:55:16.346Z,2.2
2019-03-18T23:00:18.739Z,2.2
2019-03-18T23:05:21.228Z,2.2
2019-03-18T23:10:23.624Z,2.2
2019-03-18T23:15:26.133Z,2.4
2019-03-18T23:20:28.539Z,2.4
2019-03-18T23:25:31.168Z,2.6
2019-03-18T23:30:33.489Z,2.7
2019-03-18T23:35:35.942Z,2.9
2019-03-18T23:40:38.428Z,2.9
2019-03-18T23:45:40.933Z,2.9
2019-03-18T23:50:43.388Z,2.9
2019-03-18T23:55:45.893Z,2.9
